Time;durP1;ratioP1;P1;durP2;ratioP2;P2;SDS_P1;SDS_P2;PMS_P1;PMS_P2;Temp;Humidity;BMP_temperature;BMP_pressure;BME280_temperature;BME280_humidity;BME280_pressure;Samples;Min_cycle;Max_cycle;Signal;HPM_P1;HPM_P2
2023/07/17 00:01:04;;;;;;;17.98;10.90;;;;;;;;;;5034806;28;20044;-81
2023/07/17 00:03:29;;;;;;;22.67;11.02;;;;;;;;;;5033266;28;20065;-81
2023/07/17 00:05:57;;;;;;;14.48;10.75;;;;;;;;;;5033202;28;20132;-81
2023/07/17 00:08:22;;;;;;;13.60;10.90;;;;;;;;;;5017303;28;20026;-80
2023/07/17 00:10:48;;;;;;;15.43;10.82;;;;;;;;;;5017142;28;20033;-81
2023/07/17 00:13:13;;;;;;;16.10;10.80;;;;;;;;;;5016606;28;20028;-81
2023/07/17 00:15:39;;;;;;;14.77;11.60;;;;;;;;;;5000174;28;20083;-81
2023/07/17 00:18:04;;;;;;;13.68;11.15;;;;;;;;;;5016532;28;20443;-81
2023/07/17 00:20:30;;;;;;;17.95;11.15;;;;;;;;;;5033028;28;20473;-81
2023/07/17 00:22:55;;;;;;;15.98;11.13;;;;;;;;;;5034416;28;20067;-81
2023/07/17 00:25:21;;;;;;;16.88;11.20;;;;;;;;;;5016848;28;20461;-81
2023/07/17 00:27:46;;;;;;;15.25;11.52;;;;;;;;;;5034264;28;20036;-81
2023/07/17 00:30:12;;;;;;;17.63;12.05;;;;;;;;;;5034105;28;20391;-81
2023/07/17 00:32:38;;;;;;;20.67;11.52;;;;;;;;;;5032671;28;20033;-81
2023/07/17 00:35:04;;;;;;;17.20;11.48;;;;;;;;;;5016523;28;20029;-81
2023/07/17 00:37:29;;;;;;;17.40;11.63;;;;;;;;;;5016569;28;20045;-81
2023/07/17 00:39:55;;;;;;;17.13;12.02;;;;;;;;;;5033025;28;20120;-80
2023/07/17 00:42:20;;;;;;;13.95;11.35;;;;;;;;;;5016584;28;20377;-81
2023/07/17 00:44:46;;;;;;;14.52;11.80;;;;;;;;;;5000050;28;20029;-81
2023/07/17 00:47:11;;;;;;;19.83;11.68;;;;;;;;;;5049555;28;20342;-81
2023/07/17 00:49:37;;;;;;;14.45;11.55;;;;;;;;;;5016462;28;20091;-82
2023/07/17 00:52:04;;;;;;;18.25;12.13;;;;;;;;;;5016293;28;20032;-81
2023/07/17 00:54:30;;;;;;;17.80;12.25;;;;;;;;;;5000488;28;20444;-81
2023/07/17 00:56:56;;;;;;;19.38;11.55;;;;;;;;;;4999907;28;20033;-81
2023/07/17 00:59:21;;;;;;;20.15;11.73;;;;;;;;;;5016174;28;20026;-81
2023/07/17 01:01:46;;;;;;;20.48;11.88;;;;;;;;;;5032357;28;20034;-81
2023/07/17 01:04:13;;;;;;;19.48;12.27;;;;;;;;;;5016258;28;20044;-81
2023/07/17 01:06:39;;;;;;;15.13;11.73;;;;;;;;;;5016555;28;20099;-81
2023/07/17 01:09:09;;;;;;;15.18;12.35;;;;;;;;;;5032869;28;20021;-81
2023/07/17 01:11:34;;;;;;;15.38;11.90;;;;;;;;;;5004031;28;20029;-81
2023/07/17 01:14:00;;;;;;;16.67;11.80;;;;;;;;;;5019843;28;20025;-81
2023/07/17 01:16:25;;;;;;;16.58;12.23;;;;;;;;;;5036083;28;20025;-81
2023/07/17 01:18:51;;;;;;;18.05;12.57;;;;;;;;;;5037450;28;20457;-81
2023/07/17 01:21:19;;;;;;;18.15;12.48;;;;;;;;;;5036155;28;20044;-81
2023/07/17 01:23:45;;;;;;;18.35;12.32;;;;;;;;;;5037464;28;20060;-80
2023/07/17 01:26:17;;;;;;;20.75;11.98;;;;;;;;;;5036334;28;20048;-81
2023/07/17 01:28:43;;;;;;;18.73;12.85;;;;;;;;;;5036644;28;20065;-81
2023/07/17 01:31:09;;;;;;;13.55;12.02;;;;;;;;;;5003419;28;20437;-80
2023/07/17 01:33:34;;;;;;;15.88;12.30;;;;;;;;;;5003067;28;20048;-81
2023/07/17 01:36:00;;;;;;;19.70;11.90;;;;;;;;;;5035882;28;20108;-80
2023/07/17 01:38:26;;;;;;;16.67;12.30;;;;;;;;;;5037066;28;20112;-81
2023/07/17 01:40:52;;;;;;;15.02;11.85;;;;;;;;;;5019672;28;20033;-81
2023/07/17 01:43:17;;;;;;;14.82;12.30;;;;;;;;;;5019793;28;20422;-82
2023/07/17 01:45:43;;;;;;;16.23;13.02;;;;;;;;;;5052665;28;20044;-82
2023/07/17 01:48:09;;;;;;;14.63;12.38;;;;;;;;;;5036126;28;20029;-81
2023/07/17 01:50:34;;;;;;;17.70;13.05;;;;;;;;;;5035851;28;20058;-81
2023/07/17 01:53:00;;;;;;;20.20;13.13;;;;;;;;;;5003017;28;20069;-81
2023/07/17 01:55:25;;;;;;;18.38;13.00;;;;;;;;;;5003031;28;20032;-81
2023/07/17 01:57:51;;;;;;;18.30;13.45;;;;;;;;;;5019292;28;20033;-80
2023/07/17 02:00:17;;;;;;;16.38;12.80;;;;;;;;;;5018890;28;20026;-80
2023/07/17 02:02:43;;;;;;;21.15;13.43;;;;;;;;;;5019201;28;20021;-80
2023/07/17 02:05:08;;;;;;;22.48;12.45;;;;;;;;;;5035505;28;20124;-81
2023/07/17 02:07:34;;;;;;;17.67;12.73;;;;;;;;;;5036797;28;20083;-81
2023/07/17 02:09:59;;;;;;;21.55;12.05;;;;;;;;;;5052306;28;20036;-81
2023/07/17 02:12:25;;;;;;;16.70;12.75;;;;;;;;;;5002739;28;20044;-81
2023/07/17 02:14:50;;;;;;;18.48;13.18;;;;;;;;;;5002373;28;20036;-80
2023/07/17 02:17:15;;;;;;;14.98;12.13;;;;;;;;;;5035189;28;20069;-81
2023/07/17 02:19:41;;;;;;;14.60;12.50;;;;;;;;;;5035071;28;20068;-81
2023/07/17 02:22:06;;;;;;;16.75;12.23;;;;;;;;;;5000897;28;20453;-81
2023/07/17 02:24:32;;;;;;;18.95;12.45;;;;;;;;;;5018816;28;20104;-81
2023/07/17 02:26:58;;;;;;;14.35;11.95;;;;;;;;;;5035172;28;20025;-81
2023/07/17 02:29:24;;;;;;;22.73;12.75;;;;;;;;;;5034825;28;20036;-81
2023/07/17 02:31:50;;;;;;;16.52;12.60;;;;;;;;;;5018876;28;20029;-81
2023/07/17 02:34:15;;;;;;;23.10;12.80;;;;;;;;;;5034878;28;20361;-80
2023/07/17 02:36:42;;;;;;;19.80;12.63;;;;;;;;;;5018202;28;20115;-81
2023/07/17 02:39:08;;;;;;;16.85;12.10;;;;;;;;;;5034888;28;20055;-81
2023/07/17 02:41:33;;;;;;;19.48;12.95;;;;;;;;;;5019070;28;20038;-80
2023/07/17 02:43:59;;;;;;;16.27;12.55;;;;;;;;;;5004120;28;20038;-81
2023/07/17 02:46:24;;;;;;;15.68;12.30;;;;;;;;;;5024119;28;20028;-81
2023/07/17 02:48:50;;;;;;;18.33;13.00;;;;;;;;;;5037802;28;20458;-81
2023/07/17 02:51:15;;;;;;;22.48;12.85;;;;;;;;;;5036954;28;20535;-81
2023/07/17 02:53:41;;;;;;;17.75;12.90;;;;;;;;;;5048248;28;20021;-81
2023/07/17 02:56:08;;;;;;;19.67;12.38;;;;;;;;;;5042152;28;20025;-81
2023/07/17 02:58:34;;;;;;;16.23;12.82;;;;;;;;;;5042236;28;20044;-81
2023/07/17 03:00:59;;;;;;;18.38;12.85;;;;;;;;;;5032059;28;20033;-81
2023/07/17 03:03:25;;;;;;;16.85;12.93;;;;;;;;;;5055758;28;20041;-81
2023/07/17 03:05:50;;;;;;;17.92;12.95;;;;;;;;;;5001465;28;20063;-81
2023/07/17 03:08:16;;;;;;;19.65;13.18;;;;;;;;;;5018342;28;20384;-81
2023/07/17 03:10:41;;;;;;;15.20;12.82;;;;;;;;;;5034832;28;20021;-81
2023/07/17 03:13:07;;;;;;;20.02;13.30;;;;;;;;;;5034221;28;20044;-81
2023/07/17 03:15:32;;;;;;;20.25;13.38;;;;;;;;;;5035375;28;20095;-81
2023/07/17 03:17:57;;;;;;;18.10;12.75;;;;;;;;;;5035090;28;20029;-81
2023/07/17 03:20:23;;;;;;;18.05;12.90;;;;;;;;;;5017652;28;20131;-81
2023/07/17 03:22:49;;;;;;;16.60;13.45;;;;;;;;;;5035374;28;20030;-81
2023/07/17 03:25:14;;;;;;;18.23;13.18;;;;;;;;;;5035080;28;20518;-80
2023/07/17 03:27:39;;;;;;;23.38;13.50;;;;;;;;;;5033920;28;20561;-80
2023/07/17 03:30:06;;;;;;;17.17;12.65;;;;;;;;;;5050883;28;20175;-81
2023/07/17 03:32:33;;;;;;;16.65;13.40;;;;;;;;;;5033378;28;20120;-81
2023/07/17 03:34:59;;;;;;;15.80;12.95;;;;;;;;;;5033708;28;20385;-80
2023/07/17 03:37:24;;;;;;;20.23;12.73;;;;;;;;;;5050171;28;20148;-81
2023/07/17 03:39:49;;;;;;;20.33;13.00;;;;;;;;;;5033487;28;20103;-81
2023/07/17 03:42:15;;;;;;;20.77;13.23;;;;;;;;;;5000700;28;20029;-81
2023/07/17 03:44:40;;;;;;;21.08;12.82;;;;;;;;;;5034115;28;20033;-81
2023/07/17 03:47:06;;;;;;;23.77;13.68;;;;;;;;;;5017430;28;20108;-80
2023/07/17 03:49:31;;;;;;;23.70;13.70;;;;;;;;;;5017252;28;20429;-81
2023/07/17 03:51:58;;;;;;;23.02;13.13;;;;;;;;;;5033470;28;20519;-81
2023/07/17 03:54:24;;;;;;;23.50;13.68;;;;;;;;;;5033447;28;20408;-81
2023/07/17 03:56:49;;;;;;;22.55;13.27;;;;;;;;;;5033141;28;20048;-81
2023/07/17 03:59:15;;;;;;;16.77;13.25;;;;;;;;;;5033334;28;20071;-81
2023/07/17 04:01:40;;;;;;;25.52;13.23;;;;;;;;;;5016751;28;20393;-80
2023/07/17 04:04:06;;;;;;;23.00;13.02;;;;;;;;;;5034395;28;20376;-80
2023/07/17 04:06:31;;;;;;;18.48;12.90;;;;;;;;;;5016732;28;20116;-80
2023/07/17 04:08:57;;;;;;;24.05;13.35;;;;;;;;;;5034480;28;20510;-80
2023/07/17 04:11:23;;;;;;;24.30;13.27;;;;;;;;;;5034283;28;20419;-81
2023/07/17 04:13:48;;;;;;;21.90;12.90;;;;;;;;;;5034343;28;20021;-81
2023/07/17 04:16:15;;;;;;;21.83;12.75;;;;;;;;;;5000460;28;20018;-81
2023/07/17 04:18:40;;;;;;;22.15;13.23;;;;;;;;;;5033004;28;20373;-81
2023/07/17 04:21:06;;;;;;;18.90;13.13;;;;;;;;;;5034040;28;20033;-81
2023/07/17 04:23:31;;;;;;;21.52;13.32;;;;;;;;;;5034169;28;20045;-80
2023/07/17 04:25:57;;;;;;;20.92;13.77;;;;;;;;;;5032745;28;20096;-81
2023/07/17 04:28:22;;;;;;;25.30;13.50;;;;;;;;;;5033143;28;20567;-82
2023/07/17 04:30:47;;;;;;;24.17;13.20;;;;;;;;;;5016652;28;20540;-81
2023/07/17 04:33:13;;;;;;;23.70;12.70;;;;;;;;;;5033196;28;20018;-81
2023/07/17 04:35:38;;;;;;;17.55;12.82;;;;;;;;;;5016422;28;20025;-81
2023/07/17 04:38:04;;;;;;;20.88;12.50;;;;;;;;;;5032891;28;20377;-81
2023/07/17 04:40:30;;;;;;;20.40;12.00;;;;;;;;;;5033605;28;20044;-81
2023/07/17 04:42:58;;;;;;;25.05;12.55;;;;;;;;;;5016368;28;20021;-81
2023/07/17 04:45:23;;;;;;;16.52;12.23;;;;;;;;;;5018767;28;20115;-81
2023/07/17 04:47:49;;;;;;;20.17;12.23;;;;;;;;;;5038046;28;20064;-81
2023/07/17 04:50:14;;;;;;;18.92;12.07;;;;;;;;;;5020687;28;20014;-81
2023/07/17 04:52:40;;;;;;;22.48;12.27;;;;;;;;;;5020342;28;20032;-81
2023/07/17 04:55:06;;;;;;;17.73;11.90;;;;;;;;;;5036360;28;20048;-81
2023/07/17 04:57:31;;;;;;;20.50;11.93;;;;;;;;;;5020594;28;20029;-80
2023/07/17 04:59:56;;;;;;;23.50;12.80;;;;;;;;;;5003740;28;20368;-80
2023/07/17 05:02:22;;;;;;;18.90;12.52;;;;;;;;;;5020175;28;20064;-80
2023/07/17 05:04:48;;;;;;;22.98;11.85;;;;;;;;;;5038628;28;20021;-81
2023/07/17 05:07:14;;;;;;;20.27;12.57;;;;;;;;;;5057553;28;20368;-80
2023/07/17 05:09:39;;;;;;;17.13;11.50;;;;;;;;;;5023322;28;20441;-81
2023/07/17 05:12:05;;;;;;;16.38;11.50;;;;;;;;;;5057661;28;20029;-81
2023/07/17 05:14:30;;;;;;;21.65;11.85;;;;;;;;;;5039806;28;20478;-81
2023/07/17 05:16:56;;;;;;;20.98;12.15;;;;;;;;;;5023359;28;20025;-80
2023/07/17 05:19:21;;;;;;;17.70;11.95;;;;;;;;;;5023434;28;20028;-81
2023/07/17 05:21:47;;;;;;;18.90;12.30;;;;;;;;;;5039485;28;20107;-81
2023/07/17 05:24:12;;;;;;;20.52;11.45;;;;;;;;;;5057451;28;20025;-81
2023/07/17 05:26:38;;;;;;;23.20;11.77;;;;;;;;;;5039993;28;20376;-81
2023/07/17 05:29:04;;;;;;;18.58;11.63;;;;;;;;;;5040161;28;20029;-79
2023/07/17 05:31:30;;;;;;;20.20;11.90;;;;;;;;;;5040017;28;20032;-81
2023/07/17 05:33:56;;;;;;;15.50;11.70;;;;;;;;;;5023477;28;20452;-82
2023/07/17 05:36:22;;;;;;;24.85;11.55;;;;;;;;;;5057025;28;20051;-82
2023/07/17 05:38:47;;;;;;;13.20;10.63;;;;;;;;;;5006390;28;20033;-82
2023/07/17 05:41:13;;;;;;;16.30;9.48;;;;;;;;;;5039036;28;20094;-82
2023/07/17 05:43:38;;;;;;;14.43;9.80;;;;;;;;;;5039080;28;20025;-82
2023/07/17 05:46:03;;;;;;;13.13;9.52;;;;;;;;;;5022654;28;20033;-81
2023/07/17 05:48:29;;;;;;;15.30;10.07;;;;;;;;;;5006282;28;20036;-82
2023/07/17 05:50:54;;;;;;;12.90;9.73;;;;;;;;;;5038854;28;20029;-83
2023/07/17 05:53:20;;;;;;;13.20;9.50;;;;;;;;;;5022581;28;20067;-82
2023/07/17 05:55:46;;;;;;;15.95;9.93;;;;;;;;;;5022623;28;20040;-81
2023/07/17 05:58:11;;;;;;;10.80;9.57;;;;;;;;;;5022604;28;20066;-82
2023/07/17 06:00:37;;;;;;;11.60;9.18;;;;;;;;;;5006024;28;20044;-83
2023/07/17 06:03:02;;;;;;;13.18;9.82;;;;;;;;;;5038747;28;20071;-82
2023/07/17 06:05:28;;;;;;;11.93;9.73;;;;;;;;;;5034921;28;20461;-83
2023/07/17 06:07:53;;;;;;;17.25;8.93;;;;;;;;;;5018809;28;20033;-83
2023/07/17 06:10:19;;;;;;;15.32;9.20;;;;;;;;;;5036402;28;20099;-82
2023/07/17 06:12:44;;;;;;;15.38;9.88;;;;;;;;;;5018930;28;20033;-82
2023/07/17 06:15:12;;;;;;;16.85;9.27;;;;;;;;;;5035400;28;20035;-85
2023/07/17 06:17:38;;;;;;;16.17;9.18;;;;;;;;;;5035496;28;20475;-84
2023/07/17 06:20:04;;;;;;;10.40;8.70;;;;;;;;;;5018755;28;20119;-86
2023/07/17 06:22:30;;;;;;;12.10;8.98;;;;;;;;;;5017697;28;20057;-87
2023/07/17 06:24:56;;;;;;;12.73;9.60;;;;;;;;;;5018638;28;20040;-87
2023/07/17 06:27:22;;;;;;;13.70;9.57;;;;;;;;;;5035022;28;20034;-86
2023/07/17 06:29:47;;;;;;;13.45;9.40;;;;;;;;;;5018593;28;20041;-85
2023/07/17 06:32:13;;;;;;;24.67;10.10;;;;;;;;;;5018843;28;20124;-84
2023/07/17 06:34:41;;;;;;;16.45;9.85;;;;;;;;;;5018831;28;20028;-86
2023/07/17 06:37:07;;;;;;;15.88;9.93;;;;;;;;;;5019116;28;20366;-85
2023/07/17 06:39:33;;;;;;;15.52;9.85;;;;;;;;;;5018247;28;20083;-85
2023/07/17 06:41:58;;;;;;;12.38;10.05;;;;;;;;;;5034632;28;20063;-83
2023/07/17 06:44:24;;;;;;;35.25;11.50;;;;;;;;;;5018777;28;20029;-83
2023/07/17 06:46:49;;;;;;;19.58;10.15;;;;;;;;;;5034908;28;20397;-82
2023/07/17 06:49:15;;;;;;;15.57;10.43;;;;;;;;;;5017850;28;20037;-81
2023/07/17 06:51:40;;;;;;;14.00;10.50;;;;;;;;;;5018315;28;20437;-83
2023/07/17 06:54:06;;;;;;;17.90;10.15;;;;;;;;;;5035182;28;20047;-83
2023/07/17 06:56:31;;;;;;;17.50;10.80;;;;;;;;;;5036099;28;20475;-83
2023/07/17 06:58:57;;;;;;;15.05;9.68;;;;;;;;;;5018116;28;20365;-83
2023/07/17 07:01:22;;;;;;;13.30;10.13;;;;;;;;;;5017735;28;20044;-87
2023/07/17 07:03:48;;;;;;;14.57;9.48;;;;;;;;;;5034066;28;20060;-84
2023/07/17 07:06:13;;;;;;;17.60;10.15;;;;;;;;;;5001505;28;20060;-83
2023/07/17 07:08:40;;;;;;;13.68;9.75;;;;;;;;;;5033441;28;20036;-83
2023/07/17 07:11:05;;;;;;;18.67;10.73;;;;;;;;;;5017889;28;20025;-83
2023/07/17 07:13:31;;;;;;;15.02;9.65;;;;;;;;;;5001371;28;20048;-82
2023/07/17 07:15:56;;;;;;;11.07;8.90;;;;;;;;;;5017757;28;20109;-84
2023/07/17 07:18:22;;;;;;;16.58;9.57;;;;;;;;;;5034332;28;20053;-84
2023/07/17 07:20:49;;;;;;;13.43;9.30;;;;;;;;;;5001274;28;20079;-83
2023/07/17 07:23:14;;;;;;;13.90;8.75;;;;;;;;;;5018038;28;20032;-82
2023/07/17 07:25:40;;;;;;;15.80;9.35;;;;;;;;;;5033999;28;20017;-83
2023/07/17 07:28:05;;;;;;;17.08;9.70;;;;;;;;;;5034495;28;20045;-83
2023/07/17 07:30:30;;;;;;;17.25;12.52;;;;;;;;;;5018148;28;20026;-84
2023/07/17 07:32:56;;;;;;;15.13;9.68;;;;;;;;;;5017573;28;20025;-83
2023/07/17 07:35:22;;;;;;;15.57;11.13;;;;;;;;;;5017550;28;20040;-84
2023/07/17 07:37:47;;;;;;;13.50;10.13;;;;;;;;;;5017735;28;20068;-84
2023/07/17 07:40:13;;;;;;;13.50;10.75;;;;;;;;;;5033578;28;20061;-83
2023/07/17 07:42:39;;;;;;;17.20;9.90;;;;;;;;;;5017441;28;20022;-85
2023/07/17 07:45:05;;;;;;;16.48;11.25;;;;;;;;;;5033725;28;20028;-84
2023/07/17 07:47:31;;;;;;;15.40;11.38;;;;;;;;;;5017033;28;20116;-84
2023/07/17 07:49:56;;;;;;;18.05;11.02;;;;;;;;;;5034408;28;20089;-83
2023/07/17 07:52:22;;;;;;;17.55;11.70;;;;;;;;;;5034071;28;20037;-84
2023/07/17 07:54:47;;;;;;;16.23;11.27;;;;;;;;;;5017598;28;20028;-84
2023/07/17 07:57:13;;;;;;;15.32;10.93;;;;;;;;;;5017113;28;20025;-84
2023/07/17 07:59:38;;;;;;;17.83;11.07;;;;;;;;;;5033715;28;20057;-83
2023/07/17 08:02:04;;;;;;;15.68;11.48;;;;;;;;;;5033294;28;20464;-82
2023/07/17 08:04:29;;;;;;;14.02;10.40;;;;;;;;;;5017286;28;20088;-82
2023/07/17 08:06:55;;;;;;;14.18;10.93;;;;;;;;;;5016802;28;20052;-85
2023/07/17 08:09:20;;;;;;;16.05;10.95;;;;;;;;;;5001052;28;20341;-84
2023/07/17 08:11:46;;;;;;;13.85;9.93;;;;;;;;;;5033285;28;20033;-85
2023/07/17 08:14:11;;;;;;;13.23;10.70;;;;;;;;;;5016938;28;20057;-84
2023/07/17 08:16:37;;;;;;;13.23;10.68;;;;;;;;;;5033036;28;20472;-84
2023/07/17 08:19:02;;;;;;;15.63;11.02;;;;;;;;;;5033581;28;20075;-84
2023/07/17 08:21:28;;;;;;;16.90;11.60;;;;;;;;;;5017052;28;20065;-84
2023/07/17 08:23:53;;;;;;;20.65;11.18;;;;;;;;;;5016905;28;20029;-84
2023/07/17 08:26:19;;;;;;;15.68;11.50;;;;;;;;;;5033569;28;20461;-84
2023/07/17 08:28:44;;;;;;;21.13;11.73;;;;;;;;;;5017107;28;20068;-84
2023/07/17 08:31:09;;;;;;;15.77;11.13;;;;;;;;;;5039233;28;20053;-84
2023/07/17 08:33:35;;;;;;;24.00;11.32;;;;;;;;;;5034561;28;20036;-83
2023/07/17 08:36:11;;;;;;;19.08;11.38;;;;;;;;;;5032014;28;20034;-81
2023/07/17 08:38:37;;;;;;;17.17;11.77;;;;;;;;;;5051873;28;20484;-83
2023/07/17 08:41:03;;;;;;;18.38;11.20;;;;;;;;;;5050272;28;20033;-80
2023/07/17 08:43:29;;;;;;;16.60;11.27;;;;;;;;;;5046009;28;20033;-82
2023/07/17 08:45:54;;;;;;;19.13;11.02;;;;;;;;;;5033067;28;20411;-83
2023/07/17 08:48:19;;;;;;;17.63;11.02;;;;;;;;;;5002788;28;20094;-84
2023/07/17 08:50:45;;;;;;;15.73;11.32;;;;;;;;;;5019724;28;20033;-84
2023/07/17 08:53:11;;;;;;;21.10;10.65;;;;;;;;;;5000743;28;20056;-82
2023/07/17 08:55:37;;;;;;;13.35;10.73;;;;;;;;;;5016962;28;20372;-83
2023/07/17 08:58:05;;;;;;;14.15;11.35;;;;;;;;;;5016271;28;20030;-83
2023/07/17 09:00:30;;;;;;;;;;;;;;;;;;5032932;28;20366;-82
2023/07/17 09:02:56;;;;;;;14.95;10.60;;;;;;;;;;5033061;28;19920;-82
2023/07/17 09:05:21;;;;;;;18.15;11.45;;;;;;;;;;5032465;28;20132;-82
2023/07/17 09:07:47;;;;;;;19.67;11.35;;;;;;;;;;5033043;28;20064;-81
2023/07/17 09:10:23;;;;;;;19.00;11.38;;;;;;;;;;5016705;28;20033;-81
2023/07/17 09:12:49;;;;;;;14.05;11.23;;;;;;;;;;5032755;28;20444;-82
2023/07/17 09:15:17;;;;;;;18.40;10.88;;;;;;;;;;5032563;28;20032;-81
2023/07/17 09:17:43;;;;;;;18.05;11.32;;;;;;;;;;5016253;28;20037;-81
2023/07/17 09:20:10;;;;;;;15.18;10.75;;;;;;;;;;5033512;28;20037;-82
2023/07/17 09:22:38;;;;;;;23.95;10.93;;;;;;;;;;5033604;28;20056;-81
2023/07/17 09:25:05;;;;;;;17.08;10.77;;;;;;;;;;5015852;28;20030;-83
2023/07/17 09:27:32;;;;;;;15.93;11.13;;;;;;;;;;5015830;28;20025;-83
2023/07/17 09:29:58;;;;;;;20.95;11.48;;;;;;;;;;5015884;28;20029;-84
2023/07/17 09:32:24;;;;;;;17.42;11.35;;;;;;;;;;5003365;28;20022;-81
2023/07/17 09:34:55;;;;;;;17.33;10.20;;;;;;;;;;5037217;28;20029;-80
2023/07/17 09:37:20;;;;;;;16.80;11.15;;;;;;;;;;5019721;28;20025;-81
2023/07/17 09:39:50;;;;;;;12.65;10.57;;;;;;;;;;5036124;28;20029;-81
2023/07/17 09:42:23;;;;;;;21.90;11.65;;;;;;;;;;5020204;28;20040;-81
2023/07/17 09:44:50;;;;;;;18.27;11.35;;;;;;;;;;5019682;28;20452;-81
2023/07/17 09:47:15;;;;;;;17.05;11.38;;;;;;;;;;5035785;28;20053;-81
2023/07/17 09:49:41;;;;;;;14.73;10.43;;;;;;;;;;5035556;28;20065;-82
2023/07/17 09:52:06;;;;;;;14.98;11.27;;;;;;;;;;5036825;28;20025;-81
2023/07/17 09:54:33;;;;;;;17.10;10.32;;;;;;;;;;5002934;28;20041;-81
2023/07/17 09:56:58;;;;;;;18.70;10.98;;;;;;;;;;5035728;28;20032;-82
2023/07/17 09:59:24;;;;;;;17.15;11.48;;;;;;;;;;5002542;28;20033;-82
2023/07/17 10:01:50;;;;;;;16.90;11.40;;;;;;;;;;5035678;28;20041;-81
2023/07/17 10:04:17;;;;;;;16.15;11.55;;;;;;;;;;5019468;28;20029;-82
2023/07/17 10:06:43;;;;;;;19.67;11.73;;;;;;;;;;5018852;28;20052;-82
2023/07/17 10:09:09;;;;;;;15.40;11.25;;;;;;;;;;5035648;28;20029;-81
2023/07/17 10:11:35;;;;;;;16.20;10.85;;;;;;;;;;5019476;28;20049;-82
2023/07/17 10:14:01;;;;;;;14.13;10.95;;;;;;;;;;5035109;28;20445;-81
2023/07/17 10:16:26;;;;;;;13.73;10.82;;;;;;;;;;5035302;28;20476;-82
2023/07/17 10:18:55;;;;;;;17.35;10.55;;;;;;;;;;5036449;28;20033;-83
2023/07/17 10:21:20;;;;;;;16.73;11.20;;;;;;;;;;5035101;28;20052;-82
2023/07/17 10:23:47;;;;;;;19.23;11.05;;;;;;;;;;5035017;28;20030;-82
2023/07/17 10:26:14;;;;;;;15.10;11.60;;;;;;;;;;5035309;28;20021;-82
2023/07/17 10:28:40;;;;;;;18.23;11.23;;;;;;;;;;5018512;28;20021;-81
2023/07/17 10:31:19;;;;;;;15.50;10.95;;;;;;;;;;5018669;28;20420;-82
2023/07/17 10:33:52;;;;;;;18.08;11.30;;;;;;;;;;5018390;28;20061;-82
2023/07/17 10:36:19;;;;;;;15.48;10.93;;;;;;;;;;5018371;28;20029;-82
2023/07/17 10:38:49;;;;;;;19.55;11.35;;;;;;;;;;5035392;28;20026;-82
2023/07/17 10:41:15;;;;;;;17.30;12.70;;;;;;;;;;5034260;28;20041;-82
2023/07/17 10:43:50;;;;;;;14.13;12.60;;;;;;;;;;5034964;28;20033;-82
2023/07/17 10:46:15;;;;;;;22.70;13.18;;;;;;;;;;5036335;28;20370;-81
2023/07/17 10:48:41;;;;;;;14.70;11.68;;;;;;;;;;5018587;28;20030;-82
2023/07/17 10:51:06;;;;;;;19.15;12.20;;;;;;;;;;5018152;28;20036;-81
2023/07/17 10:53:32;;;;;;;16.88;12.60;;;;;;;;;;5018553;28;20025;-82
2023/07/17 10:55:57;;;;;;;20.25;12.82;;;;;;;;;;5034297;28;20109;-82
2023/07/17 10:58:23;;;;;;;19.60;15.07;;;;;;;;;;5034689;28;20026;-82
2023/07/17 11:00:49;;;;;;;19.55;14.65;;;;;;;;;;5034484;28;20060;-82
2023/07/17 11:03:15;;;;;;;18.77;14.65;;;;;;;;;;5034243;28;20056;-82
2023/07/17 11:05:41;;;;;;;15.25;13.48;;;;;;;;;;5034276;28;20053;-82
2023/07/17 11:08:07;;;;;;;21.30;14.18;;;;;;;;;;5034323;28;20360;-83
2023/07/17 11:10:33;;;;;;;17.13;14.48;;;;;;;;;;5017540;28;20036;-83
2023/07/17 11:13:02;;;;;;;19.05;15.82;;;;;;;;;;5035345;28;20032;-82
2023/07/17 11:15:30;;;;;;;21.33;16.00;;;;;;;;;;5017606;28;20033;-81
2023/07/17 11:17:55;;;;;;;19.20;16.35;;;;;;;;;;5034113;28;20034;-82
2023/07/17 11:20:21;;;;;;;21.10;16.25;;;;;;;;;;5018160;28;20107;-82
2023/07/17 11:22:46;;;;;;;21.48;15.82;;;;;;;;;;5034038;28;20030;-82
2023/07/17 11:25:12;;;;;;;20.52;16.60;;;;;;;;;;5034898;28;20529;-83
2023/07/17 11:27:40;;;;;;;18.20;15.98;;;;;;;;;;5001077;28;20124;-83
2023/07/17 11:30:21;;;;;;;20.98;16.05;;;;;;;;;;5033894;28;20401;-83
2023/07/17 11:33:07;;;;;;;19.13;15.80;;;;;;;;;;5033908;28;20029;-83
2023/07/17 11:35:41;;;;;;;19.65;15.30;;;;;;;;;;5035027;28;20026;-82
2023/07/17 11:38:11;;;;;;;17.42;15.15;;;;;;;;;;5034885;28;20033;-82
2023/07/17 11:40:59;;;;;;;24.23;16.00;;;;;;;;;;5033670;28;20122;-84
2023/07/17 11:43:28;;;;;;;20.87;15.67;;;;;;;;;;5033575;28;20105;-83
2023/07/17 11:45:55;;;;;;;18.38;16.02;;;;;;;;;;5033641;28;20017;-82
2023/07/17 11:48:20;;;;;;;21.10;16.58;;;;;;;;;;5033952;28;20036;-82
2023/07/17 11:50:46;;;;;;;18.48;16.25;;;;;;;;;;5035249;28;20025;-82
2023/07/17 11:53:11;;;;;;;25.23;16.63;;;;;;;;;;5034523;28;20448;-83
2023/07/17 11:55:41;;;;;;;20.45;16.35;;;;;;;;;;5033218;28;20126;-83
2023/07/17 11:58:22;;;;;;;21.42;16.67;;;;;;;;;;5034460;28;20017;-83
2023/07/17 12:00:48;;;;;;;19.65;17.52;;;;;;;;;;5033966;28;20111;-83
2023/07/17 12:03:14;;;;;;;19.23;16.42;;;;;;;;;;5033590;28;20145;-84
2023/07/17 12:05:40;;;;;;;21.95;16.77;;;;;;;;;;4999955;28;20080;-83
2023/07/17 12:08:05;;;;;;;20.05;15.77;;;;;;;;;;5015932;28;20076;-84
2023/07/17 12:10:31;;;;;;;19.75;16.95;;;;;;;;;;5016145;28;20034;-84
2023/07/17 12:12:57;;;;;;;22.75;17.23;;;;;;;;;;5016298;28;20029;-83
2023/07/17 12:15:22;;;;;;;19.77;17.42;;;;;;;;;;5015424;28;20037;-83
2023/07/17 12:17:48;;;;;;;22.35;17.15;;;;;;;;;;5016191;28;20025;-83
2023/07/17 12:20:15;;;;;;;21.25;16.98;;;;;;;;;;4999370;28;20423;-83
2023/07/17 12:22:41;;;;;;;21.90;17.27;;;;;;;;;;5016274;28;20484;-84
2023/07/17 12:25:07;;;;;;;23.52;17.35;;;;;;;;;;5033111;28;20437;-83
2023/07/17 12:27:33;;;;;;;21.35;18.05;;;;;;;;;;5033358;28;20040;-86
2023/07/17 12:29:58;;;;;;;23.88;17.25;;;;;;;;;;5016896;28;20033;-84
2023/07/17 12:32:24;;;;;;;21.20;17.10;;;;;;;;;;5049920;28;20018;-81
2023/07/17 12:34:50;;;;;;;25.75;16.35;;;;;;;;;;5055587;28;20040;-86
2023/07/17 12:37:15;;;;;;;21.38;17.33;;;;;;;;;;5037671;28;20017;-84
2023/07/17 12:39:41;;;;;;;18.60;16.52;;;;;;;;;;5054823;28;20043;-83
2023/07/17 12:42:06;;;;;;;23.77;16.67;;;;;;;;;;5044732;28;20502;-84
2023/07/17 12:44:33;;;;;;;20.52;17.42;;;;;;;;;;5015770;28;20025;-84
2023/07/17 12:46:58;;;;;;;24.15;17.10;;;;;;;;;;4999767;28;20025;-83
2023/07/17 12:49:24;;;;;;;19.58;16.60;;;;;;;;;;5033424;28;20421;-84
2023/07/17 12:51:49;;;;;;;23.42;16.90;;;;;;;;;;5031929;28;20108;-83
2023/07/17 12:54:33;;;;;;;19.70;17.45;;;;;;;;;;4999390;28;20433;-82
2023/07/17 12:56:59;;;;;;;29.85;17.45;;;;;;;;;;5031941;28;20044;-84
2023/07/17 12:59:24;;;;;;;21.77;16.90;;;;;;;;;;4998873;28;20033;-83
2023/07/17 13:01:50;;;;;;;22.05;16.90;;;;;;;;;;5031662;28;20043;-84
2023/07/17 13:04:15;;;;;;;21.92;17.75;;;;;;;;;;5031707;28;20037;-84
2023/07/17 13:06:41;;;;;;;20.73;16.73;;;;;;;;;;4947909;28;1593504;-83
2023/07/17 13:09:09;;;;;;;23.38;17.52;;;;;;;;;;5037643;28;20060;-81
2023/07/17 13:11:34;;;;;;;20.80;17.70;;;;;;;;;;5037942;28;20108;-84
2023/07/17 13:14:01;;;;;;;26.65;17.80;;;;;;;;;;5020049;28;20392;-83
2023/07/17 13:16:26;;;;;;;19.55;17.27;;;;;;;;;;5019978;28;20048;-83
2023/07/17 13:18:52;;;;;;;26.85;18.00;;;;;;;;;;5037453;28;20442;-83
2023/07/17 13:21:17;;;;;;;22.45;17.50;;;;;;;;;;5037272;28;20112;-83
2023/07/17 13:23:43;;;;;;;21.70;17.33;;;;;;;;;;5036215;28;20086;-83
2023/07/17 13:26:08;;;;;;;19.00;17.05;;;;;;;;;;5037691;28;20026;-84
2023/07/17 13:28:34;;;;;;;20.38;17.67;;;;;;;;;;5036376;28;20030;-83
2023/07/17 13:31:00;;;;;;;21.23;17.60;;;;;;;;;;5019827;28;20033;-84
2023/07/17 13:33:25;;;;;;;21.17;18.27;;;;;;;;;;5036278;28;20022;-82
2023/07/17 13:35:51;;;;;;;20.52;18.27;;;;;;;;;;5037109;28;20453;-82
2023/07/17 13:38:16;;;;;;;26.25;18.00;;;;;;;;;;5037283;28;20115;-84
2023/07/17 13:40:41;;;;;;;20.55;17.50;;;;;;;;;;5035991;28;20048;-82
2023/07/17 13:43:07;;;;;;;20.40;17.20;;;;;;;;;;5019330;28;20485;-87
2023/07/17 13:45:32;;;;;;;23.70;18.02;;;;;;;;;;5019522;28;20427;-81
2023/07/17 13:47:58;;;;;;;22.75;18.48;;;;;;;;;;5036001;28;20034;-83
2023/07/17 13:50:23;;;;;;;24.27;17.67;;;;;;;;;;5002933;28;20149;-83
2023/07/17 13:52:49;;;;;;;23.23;18.23;;;;;;;;;;5035762;28;20041;-81
2023/07/17 13:55:14;;;;;;;22.10;17.88;;;;;;;;;;5036853;28;20033;-83
2023/07/17 13:57:39;;;;;;;20.10;17.65;;;;;;;;;;5036949;28;20037;-82
2023/07/17 14:00:05;;;;;;;22.55;18.63;;;;;;;;;;5037145;28;20804;-82
2023/07/17 14:02:32;;;;;;;20.55;18.05;;;;;;;;;;5019184;28;20029;-82
2023/07/17 14:04:57;;;;;;;24.52;18.02;;;;;;;;;;5018600;28;20044;-83
2023/07/17 14:07:22;;;;;;;21.92;17.63;;;;;;;;;;5035407;28;20033;-83
2023/07/17 14:09:48;;;;;;;22.02;17.75;;;;;;;;;;5019287;28;20021;-82
2023/07/17 14:12:13;;;;;;;27.83;18.55;;;;;;;;;;5036826;28;20026;-83